sensor_id;sensor_type;location;lat;lon;timestamp;pressure;altitude;pressure_sealevel;temperature;humidity
16481;BME280;44634;54.110;12.138;2023-03-26T00:01:38;99432.81;;;9.94;100.00
16481;BME280;44634;54.110;12.138;2023-03-26T00:04:07;99441.56;;;10.03;100.00
16481;BME280;44634;54.110;12.138;2023-03-26T00:06:36;99454.25;;;9.91;100.00
16481;BME280;44634;54.110;12.138;2023-03-26T00:09:07;99477.34;;;9.89;100.00
16481;BME280;44634;54.110;12.138;2023-03-26T00:11:36;99508.91;;;9.99;100.00
16481;BME280;44634;54.110;12.138;2023-03-26T00:14:04;99495.19;;;10.11;100.00
16481;BME280;44634;54.110;12.138;2023-03-26T00:16:32;99475.06;;;10.35;100.00
16481;BME280;44634;54.110;12.138;2023-03-26T00:19:00;99484.25;;;9.66;100.00
16481;BME280;44634;54.110;12.138;2023-03-26T00:21:29;99528.34;;;9.90;100.00
16481;BME280;44634;54.110;12.138;2023-03-26T00:23:59;99529.88;;;10.17;100.00
16481;BME280;44634;54.110;12.138;2023-03-26T00:26:30;99517.78;;;9.90;100.00
16481;BME280;44634;54.110;12.138;2023-03-26T00:29:00;99528.31;;;9.81;100.00
16481;BME280;44634;54.110;12.138;2023-03-26T00:31:29;99534.47;;;9.98;100.00
16481;BME280;44634;54.110;12.138;2023-03-26T00:33:57;99517.97;;;10.21;100.00
16481;BME280;44634;54.110;12.138;2023-03-26T00:36:28;99511.22;;;10.26;100.00
16481;BME280;44634;54.110;12.138;2023-03-26T00:38:56;99498.31;;;9.91;100.00
16481;BME280;44634;54.110;12.138;2023-03-26T00:41:24;99494.06;;;10.14;100.00
16481;BME280;44634;54.110;12.138;2023-03-26T00:43:58;99486.78;;;10.49;100.00
16481;BME280;44634;54.110;12.138;2023-03-26T00:46:28;99467.63;;;9.90;100.00
16481;BME280;44634;54.110;12.138;2023-03-26T00:48:57;99464.84;;;9.99;100.00
16481;BME280;44634;54.110;12.138;2023-03-26T00:51:26;99478.03;;;9.99;100.00
16481;BME280;44634;54.110;12.138;2023-03-26T00:53:55;99459.03;;;10.20;100.00
16481;BME280;44634;54.110;12.138;2023-03-26T00:56:23;99470.44;;;10.04;100.00
16481;BME280;44634;54.110;12.138;2023-03-26T00:58:51;99476.03;;;9.93;100.00
16481;BME280;44634;54.110;12.138;2023-03-26T01:01:22;99483.47;;;9.98;100.00
16481;BME280;44634;54.110;12.138;2023-03-26T01:03:57;99455.44;;;10.29;100.00
16481;BME280;44634;54.110;12.138;2023-03-26T01:06:36;99449.63;;;10.18;100.00
16481;BME280;44634;54.110;12.138;2023-03-26T01:09:12;99441.06;;;10.07;100.00
16481;BME280;44634;54.110;12.138;2023-03-26T01:11:41;99453.25;;;9.92;100.00
16481;BME280;44634;54.110;12.138;2023-03-26T01:14:11;99461.69;;;9.88;100.00
16481;BME280;44634;54.110;12.138;2023-03-26T01:16:42;99452.28;;;10.26;100.00
16481;BME280;44634;54.110;12.138;2023-03-26T01:19:28;99441.22;;;10.22;100.00
16481;BME280;44634;54.110;12.138;2023-03-26T01:21:59;99436.44;;;10.18;100.00
16481;BME280;44634;54.110;12.138;2023-03-26T01:24:28;99444.88;;;10.21;100.00
16481;BME280;44634;54.110;12.138;2023-03-26T01:27:05;99458.06;;;9.89;100.00
16481;BME280;44634;54.110;12.138;2023-03-26T01:29:40;99462.19;;;10.07;100.00
16481;BME280;44634;54.110;12.138;2023-03-26T01:32:20;99451.63;;;10.07;100.00
16481;BME280;44634;54.110;12.138;2023-03-26T01:35:01;99461.34;;;10.07;100.00
16481;BME280;44634;54.110;12.138;2023-03-26T01:37:45;99472.91;;;9.90;100.00
16481;BME280;44634;54.110;12.138;2023-03-26T01:40:24;99505.75;;;9.87;100.00
16481;BME280;44634;54.110;12.138;2023-03-26T01:42:56;99500.31;;;9.89;100.00
16481;BME280;44634;54.110;12.138;2023-03-26T01:45:27;99483.31;;;10.07;100.00
16481;BME280;44634;54.110;12.138;2023-03-26T01:47:56;99479.16;;;9.97;100.00
16481;BME280;44634;54.110;12.138;2023-03-26T01:50:24;99461.38;;;9.99;100.00
16481;BME280;44634;54.110;12.138;2023-03-26T01:52:52;99478.53;;;9.87;100.00
16481;BME280;44634;54.110;12.138;2023-03-26T01:55:26;99495.47;;;9.68;100.00
16481;BME280;44634;54.110;12.138;2023-03-26T01:57:59;99496.16;;;9.78;100.00
16481;BME280;44634;54.110;12.138;2023-03-26T02:00:32;99510.00;;;9.72;100.00
16481;BME280;44634;54.110;12.138;2023-03-26T02:03:12;99490.75;;;10.04;100.00
16481;BME280;44634;54.110;12.138;2023-03-26T02:05:49;99491.56;;;9.88;100.00
16481;BME280;44634;54.110;12.138;2023-03-26T02:08:22;99490.22;;;9.92;100.00
16481;BME280;44634;54.110;12.138;2023-03-26T02:10:56;99492.53;;;9.71;100.00
16481;BME280;44634;54.110;12.138;2023-03-26T02:13:25;99496.22;;;9.36;100.00
16481;BME280;44634;54.110;12.138;2023-03-26T02:15:54;99512.25;;;9.50;100.00
16481;BME280;44634;54.110;12.138;2023-03-26T02:18:22;99506.53;;;9.79;100.00
16481;BME280;44634;54.110;12.138;2023-03-26T02:20:50;99497.63;;;9.72;100.00
16481;BME280;44634;54.110;12.138;2023-03-26T02:23:19;99483.59;;;9.80;100.00
16481;BME280;44634;54.110;12.138;2023-03-26T02:25:47;99495.81;;;9.73;100.00
16481;BME280;44634;54.110;12.138;2023-03-26T02:28:16;99503.25;;;9.94;100.00
16481;BME280;44634;54.110;12.138;2023-03-26T02:30:44;99490.25;;;10.25;100.00
16481;BME280;44634;54.110;12.138;2023-03-26T02:33:12;99487.44;;;9.86;100.00
16481;BME280;44634;54.110;12.138;2023-03-26T02:35:42;99515.16;;;9.90;100.00
16481;BME280;44634;54.110;12.138;2023-03-26T02:38:11;99521.56;;;9.95;100.00
16481;BME280;44634;54.110;12.138;2023-03-26T02:40:40;99549.84;;;9.44;100.00
16481;BME280;44634;54.110;12.138;2023-03-26T02:43:07;99515.09;;;9.65;100.00
16481;BME280;44634;54.110;12.138;2023-03-26T02:45:37;99506.06;;;9.84;100.00
16481;BME280;44634;54.110;12.138;2023-03-26T02:48:05;99498.66;;;9.88;100.00
16481;BME280;44634;54.110;12.138;2023-03-26T02:50:33;99505.72;;;9.71;100.00
16481;BME280;44634;54.110;12.138;2023-03-26T02:53:02;99541.84;;;9.78;100.00
16481;BME280;44634;54.110;12.138;2023-03-26T02:55:29;99560.72;;;9.49;100.00
16481;BME280;44634;54.110;12.138;2023-03-26T02:57:58;99588.69;;;9.76;100.00
16481;BME280;44634;54.110;12.138;2023-03-26T03:00:25;99595.31;;;9.80;100.00
16481;BME280;44634;54.110;12.138;2023-03-26T03:02:55;99598.28;;;9.77;100.00
16481;BME280;44634;54.110;12.138;2023-03-26T03:05:24;99616.97;;;9.92;100.00
16481;BME280;44634;54.110;12.138;2023-03-26T03:07:53;99619.97;;;9.55;100.00
16481;BME280;44634;54.110;12.138;2023-03-26T03:10:24;99612.53;;;10.09;100.00
16481;BME280;44634;54.110;12.138;2023-03-26T03:12:53;99610.56;;;10.03;100.00
16481;BME280;44634;54.110;12.138;2023-03-26T03:15:21;99616.13;;;9.92;100.00
16481;BME280;44634;54.110;12.138;2023-03-26T03:17:49;99610.97;;;9.82;100.00
16481;BME280;44634;54.110;12.138;2023-03-26T03:20:18;99623.94;;;9.59;100.00
16481;BME280;44634;54.110;12.138;2023-03-26T03:22:47;99642.75;;;9.64;100.00
16481;BME280;44634;54.110;12.138;2023-03-26T03:25:15;99660.41;;;9.64;100.00
16481;BME280;44634;54.110;12.138;2023-03-26T03:27:43;99653.69;;;9.77;100.00
16481;BME280;44634;54.110;12.138;2023-03-26T03:30:12;99610.19;;;9.98;100.00
16481;BME280;44634;54.110;12.138;2023-03-26T03:32:40;99616.34;;;9.56;100.00
16481;BME280;44634;54.110;12.138;2023-03-26T03:35:08;99632.38;;;9.63;100.00
16481;BME280;44634;54.110;12.138;2023-03-26T03:37:37;99617.69;;;9.68;100.00
16481;BME280;44634;54.110;12.138;2023-03-26T03:40:06;99598.72;;;9.65;100.00
16481;BME280;44634;54.110;12.138;2023-03-26T03:42:36;99591.91;;;9.54;100.00
16481;BME280;44634;54.110;12.138;2023-03-26T03:45:05;99599.88;;;9.62;100.00
16481;BME280;44634;54.110;12.138;2023-03-26T03:47:33;99595.38;;;10.05;100.00
16481;BME280;44634;54.110;12.138;2023-03-26T03:50:01;99566.47;;;9.95;100.00
16481;BME280;44634;54.110;12.138;2023-03-26T03:52:28;99558.34;;;9.80;100.00
16481;BME280;44634;54.110;12.138;2023-03-26T03:54:57;99556.06;;;9.86;100.00
16481;BME280;44634;54.110;12.138;2023-03-26T03:57:26;99553.06;;;9.80;100.00
16481;BME280;44634;54.110;12.138;2023-03-26T03:59:54;99563.50;;;9.90;100.00
16481;BME280;44634;54.110;12.138;2023-03-26T04:02:23;99550.16;;;10.00;100.00
16481;BME280;44634;54.110;12.138;2023-03-26T04:04:56;99540.41;;;9.84;100.00
16481;BME280;44634;54.110;12.138;2023-03-26T04:07:24;99550.47;;;9.89;100.00
16481;BME280;44634;54.110;12.138;2023-03-26T04:09:52;99542.84;;;9.69;100.00
16481;BME280;44634;54.110;12.138;2023-03-26T04:12:21;99542.22;;;10.00;100.00
16481;BME280;44634;54.110;12.138;2023-03-26T04:14:49;99518.75;;;9.80;100.00
16481;BME280;44634;54.110;12.138;2023-03-26T04:17:17;99505.72;;;9.71;100.00
16481;BME280;44634;54.110;12.138;2023-03-26T04:19:47;99511.91;;;9.45;100.00
16481;BME280;44634;54.110;12.138;2023-03-26T04:22:16;99513.84;;;9.27;100.00
16481;BME280;44634;54.110;12.138;2023-03-26T04:24:44;99516.97;;;9.39;100.00
16481;BME280;44634;54.110;12.138;2023-03-26T04:27:16;99506.69;;;9.62;100.00
16481;BME280;44634;54.110;12.138;2023-03-26T04:29:48;99500.09;;;9.74;100.00
16481;BME280;44634;54.110;12.138;2023-03-26T04:32:21;99491.50;;;9.64;100.00
16481;BME280;44634;54.110;12.138;2023-03-26T04:34:49;99494.53;;;9.27;100.00
16481;BME280;44634;54.110;12.138;2023-03-26T04:37:22;99491.34;;;9.65;100.00
16481;BME280;44634;54.110;12.138;2023-03-26T04:39:52;99489.22;;;9.77;100.00
16481;BME280;44634;54.110;12.138;2023-03-26T04:42:20;99492.56;;;10.03;100.00
16481;BME280;44634;54.110;12.138;2023-03-26T04:44:49;99495.31;;;9.77;100.00
16481;BME280;44634;54.110;12.138;2023-03-26T04:47:18;99495.19;;;9.95;100.00
16481;BME280;44634;54.110;12.138;2023-03-26T04:49:46;99491.16;;;9.59;100.00
16481;BME280;44634;54.110;12.138;2023-03-26T04:52:14;99499.28;;;9.73;100.00
16481;BME280;44634;54.110;12.138;2023-03-26T04:54:43;99496.78;;;9.64;100.00
16481;BME280;44634;54.110;12.138;2023-03-26T04:57:16;99499.63;;;9.78;100.00
16481;BME280;44634;54.110;12.138;2023-03-26T04:59:46;99503.88;;;9.55;100.00
16481;BME280;44634;54.110;12.138;2023-03-26T05:02:16;99501.25;;;9.71;100.00
16481;BME280;44634;54.110;12.138;2023-03-26T05:04:45;99498.69;;;9.37;100.00
16481;BME280;44634;54.110;12.138;2023-03-26T05:07:17;99497.03;;;8.94;100.00
16481;BME280;44634;54.110;12.138;2023-03-26T05:09:45;99508.25;;;9.38;100.00
16481;BME280;44634;54.110;12.138;2023-03-26T05:12:13;99507.53;;;9.20;100.00
16481;BME280;44634;54.110;12.138;2023-03-26T05:14:41;99505.00;;;9.10;100.00
16481;BME280;44634;54.110;12.138;2023-03-26T05:17:13;99504.38;;;9.16;100.00
16481;BME280;44634;54.110;12.138;2023-03-26T05:19:45;99500.06;;;9.07;100.00
16481;BME280;44634;54.110;12.138;2023-03-26T05:22:13;99502.34;;;9.52;100.00
16481;BME280;44634;54.110;12.138;2023-03-26T05:24:41;99491.78;;;9.44;100.00
16481;BME280;44634;54.110;12.138;2023-03-26T05:27:13;99497.84;;;9.29;100.00
16481;BME280;44634;54.110;12.138;2023-03-26T05:29:42;99500.25;;;8.80;100.00
16481;BME280;44634;54.110;12.138;2023-03-26T05:32:10;99505.03;;;9.69;100.00
16481;BME280;44634;54.110;12.138;2023-03-26T05:34:38;99512.69;;;9.38;100.00
16481;BME280;44634;54.110;12.138;2023-03-26T05:37:08;99516.22;;;9.54;100.00
16481;BME280;44634;54.110;12.138;2023-03-26T05:39:36;99523.78;;;9.41;100.00
16481;BME280;44634;54.110;12.138;2023-03-26T05:42:04;99527.13;;;9.68;100.00
16481;BME280;44634;54.110;12.138;2023-03-26T05:44:33;99530.13;;;9.22;100.00
16481;BME280;44634;54.110;12.138;2023-03-26T05:47:01;99538.00;;;9.14;100.00
16481;BME280;44634;54.110;12.138;2023-03-26T05:49:29;99526.16;;;9.18;100.00
16481;BME280;44634;54.110;12.138;2023-03-26T05:51:57;99526.63;;;9.64;100.00
16481;BME280;44634;54.110;12.138;2023-03-26T05:54:26;99531.38;;;9.52;100.00
16481;BME280;44634;54.110;12.138;2023-03-26T05:56:54;99541.31;;;9.16;100.00
16481;BME280;44634;54.110;12.138;2023-03-26T05:59:23;99541.94;;;9.52;100.00
16481;BME280;44634;54.110;12.138;2023-03-26T06:01:51;99540.50;;;9.24;100.00
16481;BME280;44634;54.110;12.138;2023-03-26T06:04:20;99525.47;;;9.16;100.00
16481;BME280;44634;54.110;12.138;2023-03-26T06:06:48;99530.19;;;9.05;100.00
16481;BME280;44634;54.110;12.138;2023-03-26T06:09:18;99529.06;;;8.81;100.00
16481;BME280;44634;54.110;12.138;2023-03-26T06:11:47;99542.69;;;8.51;100.00
16481;BME280;44634;54.110;12.138;2023-03-26T06:14:15;99552.03;;;8.10;100.00
16481;BME280;44634;54.110;12.138;2023-03-26T06:16:42;99563.31;;;7.84;100.00
16481;BME280;44634;54.110;12.138;2023-03-26T06:19:10;99577.19;;;7.76;100.00
16481;BME280;44634;54.110;12.138;2023-03-26T06:21:38;99592.56;;;7.81;100.00
16481;BME280;44634;54.110;12.138;2023-03-26T06:24:06;99610.84;;;8.00;100.00
16481;BME280;44634;54.110;12.138;2023-03-26T06:26:34;99606.38;;;8.28;100.00
16481;BME280;44634;54.110;12.138;2023-03-26T06:29:03;99605.16;;;8.23;100.00
16481;BME280;44634;54.110;12.138;2023-03-26T06:31:31;99616.19;;;8.09;100.00
16481;BME280;44634;54.110;12.138;2023-03-26T06:33:59;99626.22;;;8.23;100.00
16481;BME280;44634;54.110;12.138;2023-03-26T06:36:27;99615.19;;;8.37;100.00
16481;BME280;44634;54.110;12.138;2023-03-26T06:38:54;99612.94;;;8.60;100.00
16481;BME280;44634;54.110;12.138;2023-03-26T06:41:22;99610.28;;;8.60;100.00
16481;BME280;44634;54.110;12.138;2023-03-26T06:43:50;99611.63;;;8.28;100.00
16481;BME280;44634;54.110;12.138;2023-03-26T06:46:19;99630.69;;;7.95;100.00
16481;BME280;44634;54.110;12.138;2023-03-26T06:48:48;99626.03;;;7.89;100.00
16481;BME280;44634;54.110;12.138;2023-03-26T06:51:17;99620.22;;;7.85;100.00
16481;BME280;44634;54.110;12.138;2023-03-26T06:53:44;99607.97;;;7.94;100.00
16481;BME280;44634;54.110;12.138;2023-03-26T06:56:13;99587.94;;;8.11;100.00
16481;BME280;44634;54.110;12.138;2023-03-26T06:58:41;99580.78;;;8.39;100.00
16481;BME280;44634;54.110;12.138;2023-03-26T07:01:09;99580.72;;;8.13;100.00
16481;BME280;44634;54.110;12.138;2023-03-26T07:03:38;99588.25;;;8.43;100.00
16481;BME280;44634;54.110;12.138;2023-03-26T07:06:07;99610.03;;;8.18;100.00
16481;BME280;44634;54.110;12.138;2023-03-26T07:08:34;99648.03;;;8.33;100.00
16481;BME280;44634;54.110;12.138;2023-03-26T07:11:02;99690.47;;;8.12;100.00
16481;BME280;44634;54.110;12.138;2023-03-26T07:13:30;99705.91;;;8.25;100.00
16481;BME280;44634;54.110;12.138;2023-03-26T07:15:58;99737.22;;;8.28;100.00
16481;BME280;44634;54.110;12.138;2023-03-26T07:18:26;99771.03;;;8.23;100.00
16481;BME280;44634;54.110;12.138;2023-03-26T07:20:56;99790.56;;;8.30;100.00
16481;BME280;44634;54.110;12.138;2023-03-26T07:23:24;99804.75;;;7.82;100.00
16481;BME280;44634;54.110;12.138;2023-03-26T07:25:52;99804.69;;;7.92;100.00
16481;BME280;44634;54.110;12.138;2023-03-26T07:28:24;99824.28;;;8.17;100.00
16481;BME280;44634;54.110;12.138;2023-03-26T07:31:09;99822.13;;;8.02;100.00
16481;BME280;44634;54.110;12.138;2023-03-26T07:33:43;99849.66;;;8.18;100.00
16481;BME280;44634;54.110;12.138;2023-03-26T07:36:22;99872.94;;;8.13;100.00
16481;BME280;44634;54.110;12.138;2023-03-26T07:39:02;99874.94;;;9.03;100.00
16481;BME280;44634;54.110;12.138;2023-03-26T07:41:37;99894.06;;;9.22;100.00
16481;BME280;44634;54.110;12.138;2023-03-26T07:44:32;99945.28;;;9.02;100.00
16481;BME280;44634;54.110;12.138;2023-03-26T07:47:11;99984.38;;;8.13;100.00
16481;BME280;44634;54.110;12.138;2023-03-26T07:49:42;99993.78;;;8.45;100.00
16481;BME280;44634;54.110;12.138;2023-03-26T07:52:12;100013.56;;;8.95;100.00
16481;BME280;44634;54.110;12.138;2023-03-26T07:54:40;100046.00;;;8.20;100.00
16481;BME280;44634;54.110;12.138;2023-03-26T07:57:13;100057.00;;;8.45;100.00
16481;BME280;44634;54.110;12.138;2023-03-26T07:59:48;100059.28;;;8.77;100.00
16481;BME280;44634;54.110;12.138;2023-03-26T08:02:37;100078.69;;;9.60;100.00
16481;BME280;44634;54.110;12.138;2023-03-26T08:05:13;100096.03;;;8.98;100.00
16481;BME280;44634;54.110;12.138;2023-03-26T08:07:55;100117.94;;;8.98;100.00
16481;BME280;44634;54.110;12.138;2023-03-26T08:10:29;100124.91;;;8.31;100.00
16481;BME280;44634;54.110;12.138;2023-03-26T08:13:09;100120.25;;;9.11;100.00
16481;BME280;44634;54.110;12.138;2023-03-26T08:15:48;100125.72;;;8.90;100.00
16481;BME280;44634;54.110;12.138;2023-03-26T08:18:25;100125.22;;;9.23;100.00
16481;BME280;44634;54.110;12.138;2023-03-26T08:21:01;100144.88;;;8.63;100.00
16481;BME280;44634;54.110;12.138;2023-03-26T08:23:35;100146.84;;;8.71;100.00
16481;BME280;44634;54.110;12.138;2023-03-26T08:26:27;100135.44;;;8.99;100.00
16481;BME280;44634;54.110;12.138;2023-03-26T08:29:05;100142.81;;;8.76;100.00
16481;BME280;44634;54.110;12.138;2023-03-26T08:31:38;100146.50;;;9.49;100.00
16481;BME280;44634;54.110;12.138;2023-03-26T08:34:09;100143.97;;;9.11;100.00
16481;BME280;44634;54.110;12.138;2023-03-26T08:36:37;100150.28;;;8.52;100.00
16481;BME280;44634;54.110;12.138;2023-03-26T08:39:06;100172.06;;;8.34;100.00
16481;BME280;44634;54.110;12.138;2023-03-26T08:41:59;100159.44;;;8.77;100.00
16481;BME280;44634;54.110;12.138;2023-03-26T08:54:18;100173.84;;;9.11;100.00
16481;BME280;44634;54.110;12.138;2023-03-26T08:57:03;100174.34;;;9.34;100.00
16481;BME280;44634;54.110;12.138;2023-03-26T09:03:03;100197.72;;;9.00;100.00
16481;BME280;44634;54.110;12.138;2023-03-26T09:06:08;100181.56;;;9.42;100.00
16481;BME280;44634;54.110;12.138;2023-03-26T09:12:39;100195.41;;;9.81;100.00
16481;BME280;44634;54.110;12.138;2023-03-26T09:24:50;100181.72;;;9.31;100.00
16481;BME280;44634;54.110;12.138;2023-03-26T09:27:35;100173.75;;;10.05;100.00
16481;BME280;44634;54.110;12.138;2023-03-26T09:30:27;100174.53;;;9.13;100.00
16481;BME280;44634;54.110;12.138;2023-03-26T09:33:13;100185.09;;;9.13;100.00
16481;BME280;44634;54.110;12.138;2023-03-26T09:35:51;100195.78;;;9.02;100.00
16481;BME280;44634;54.110;12.138;2023-03-26T09:38:33;100189.91;;;9.74;100.00
16481;BME280;44634;54.110;12.138;2023-03-26T09:41:07;100204.69;;;9.58;100.00
16481;BME280;44634;54.110;12.138;2023-03-26T09:44:16;100196.97;;;9.37;100.00
16481;BME280;44634;54.110;12.138;2023-03-26T09:49:52;100217.81;;;8.53;100.00
16481;BME280;44634;54.110;12.138;2023-03-26T09:52:43;100200.94;;;9.60;100.00
16481;BME280;44634;54.110;12.138;2023-03-26T09:55:30;100208.59;;;10.46;100.00
16481;BME280;44634;54.110;12.138;2023-03-26T09:58:16;100195.59;;;10.34;100.00
16481;BME280;44634;54.110;12.138;2023-03-26T10:00:52;100218.97;;;10.57;100.00
16481;BME280;44634;54.110;12.138;2023-03-26T10:03:37;100202.56;;;9.71;100.00
16481;BME280;44634;54.110;12.138;2023-03-26T10:06:24;100215.84;;;9.79;100.00
16481;BME280;44634;54.110;12.138;2023-03-26T10:09:04;100225.59;;;9.32;100.00
16481;BME280;44634;54.110;12.138;2023-03-26T10:11:48;100216.41;;;9.45;100.00
16481;BME280;44634;54.110;12.138;2023-03-26T10:14:23;100230.50;;;8.98;100.00
16481;BME280;44634;54.110;12.138;2023-03-26T10:17:00;100225.75;;;9.67;100.00
16481;BME280;44634;54.110;12.138;2023-03-26T10:19:43;100208.59;;;10.81;100.00
16481;BME280;44634;54.110;12.138;2023-03-26T10:22:26;100222.19;;;10.51;100.00
16481;BME280;44634;54.110;12.138;2023-03-26T10:28:15;100213.03;;;10.81;100.00
16481;BME280;44634;54.110;12.138;2023-03-26T10:30:56;100220.97;;;10.98;100.00
16481;BME280;44634;54.110;12.138;2023-03-26T10:33:39;100221.44;;;11.38;100.00
16481;BME280;44634;54.110;12.138;2023-03-26T10:36:35;100220.56;;;11.29;100.00
16481;BME280;44634;54.110;12.138;2023-03-26T10:39:24;100212.50;;;11.65;88.23
16481;BME280;44634;54.110;12.138;2023-03-26T10:42:18;100222.81;;;11.24;93.57
16481;BME280;44634;54.110;12.138;2023-03-26T10:45:07;100205.88;;;11.86;93.25
16481;BME280;44634;54.110;12.138;2023-03-26T10:47:54;100215.66;;;11.42;96.03
16481;BME280;44634;54.110;12.138;2023-03-26T10:50:37;100213.59;;;13.05;80.85
16481;BME280;44634;54.110;12.138;2023-03-26T10:53:24;100236.75;;;11.08;88.81
16481;BME280;44634;54.110;12.138;2023-03-26T10:55:59;100233.50;;;11.84;83.42
16481;BME280;44634;54.110;12.138;2023-03-26T10:58:36;100213.59;;;11.80;80.07
16481;BME280;44634;54.110;12.138;2023-03-26T11:01:23;100220.69;;;12.05;79.95
16481;BME280;44634;54.110;12.138;2023-03-26T11:03:55;100207.41;;;13.53;71.70
16481;BME280;44634;54.110;12.138;2023-03-26T11:06:35;100209.44;;;13.51;68.59
16481;BME280;44634;54.110;12.138;2023-03-26T11:09:15;100232.28;;;12.63;65.37
16481;BME280;44634;54.110;12.138;2023-03-26T11:11:51;100242.75;;;11.80;73.63
16481;BME280;44634;54.110;12.138;2023-03-26T11:14:26;100230.97;;;12.67;76.77
16481;BME280;44634;54.110;12.138;2023-03-26T11:17:05;100229.00;;;13.50;68.32
16481;BME280;44634;54.110;12.138;2023-03-26T11:20:01;100231.00;;;12.91;72.62
16481;BME280;44634;54.110;12.138;2023-03-26T11:22:35;100232.88;;;13.31;65.22
16481;BME280;44634;54.110;12.138;2023-03-26T11:25:28;100247.59;;;12.27;66.27
16481;BME280;44634;54.110;12.138;2023-03-26T11:28:14;100228.06;;;13.19;67.31
16481;BME280;44634;54.110;12.138;2023-03-26T11:30:50;100221.28;;;14.58;62.82
16481;BME280;44634;54.110;12.138;2023-03-26T11:33:22;100231.13;;;15.03;61.02
16481;BME280;44634;54.110;12.138;2023-03-26T11:36:01;100211.09;;;14.70;63.42
16481;BME280;44634;54.110;12.138;2023-03-26T11:38:32;100234.16;;;13.44;70.83
16481;BME280;44634;54.110;12.138;2023-03-26T11:41:11;100230.34;;;13.46;63.84
16481;BME280;44634;54.110;12.138;2023-03-26T11:43:39;100239.28;;;14.56;60.02
16481;BME280;44634;54.110;12.138;2023-03-26T11:46:10;100236.28;;;14.82;53.30
16481;BME280;44634;54.110;12.138;2023-03-26T11:48:40;100242.16;;;13.19;67.22
16481;BME280;44634;54.110;12.138;2023-03-26T11:51:13;100244.59;;;12.80;64.77
16481;BME280;44634;54.110;12.138;2023-03-26T11:53:44;100242.47;;;14.51;60.82
16481;BME280;44634;54.110;12.138;2023-03-26T11:56:18;100237.28;;;12.98;63.88
16481;BME280;44634;54.110;12.138;2023-03-26T11:58:53;100239.78;;;14.12;67.38
16481;BME280;44634;54.110;12.138;2023-03-26T12:01:25;100257.63;;;12.57;66.50
16481;BME280;44634;54.110;12.138;2023-03-26T12:03:57;100250.28;;;12.35;72.26
16481;BME280;44634;54.110;12.138;2023-03-26T12:06:29;100252.94;;;14.06;59.87
16481;BME280;44634;54.110;12.138;2023-03-26T12:08:58;100252.09;;;14.52;57.52
16481;BME280;44634;54.110;12.138;2023-03-26T12:11:29;100253.09;;;12.33;65.68
16481;BME280;44634;54.110;12.138;2023-03-26T12:14:03;100254.22;;;13.62;65.62
16481;BME280;44634;54.110;12.138;2023-03-26T12:16:31;100252.78;;;14.07;58.99
16481;BME280;44634;54.110;12.138;2023-03-26T12:19:04;100262.19;;;12.89;56.01
16481;BME280;44634;54.110;12.138;2023-03-26T12:21:43;100247.56;;;13.75;57.61
16481;BME280;44634;54.110;12.138;2023-03-26T12:24:26;100251.41;;;13.07;60.82
16481;BME280;44634;54.110;12.138;2023-03-26T12:27:00;100250.53;;;13.80;67.41
16481;BME280;44634;54.110;12.138;2023-03-26T12:29:29;100235.47;;;12.91;62.71
16481;BME280;44634;54.110;12.138;2023-03-26T12:32:05;100245.44;;;13.13;64.26
16481;BME280;44634;54.110;12.138;2023-03-26T12:34:35;100254.41;;;13.53;62.29
16481;BME280;44634;54.110;12.138;2023-03-26T12:37:05;100255.69;;;12.84;62.32
16481;BME280;44634;54.110;12.138;2023-03-26T12:39:35;100257.72;;;14.57;56.88
16481;BME280;44634;54.110;12.138;2023-03-26T12:42:27;100270.50;;;12.36;65.00
16481;BME280;44634;54.110;12.138;2023-03-26T12:45:19;100270.59;;;12.18;66.84
16481;BME280;44634;54.110;12.138;2023-03-26T12:47:47;100268.19;;;12.41;67.57
16481;BME280;44634;54.110;12.138;2023-03-26T12:50:33;100273.78;;;13.13;56.34
16481;BME280;44634;54.110;12.138;2023-03-26T12:53:23;100250.59;;;14.11;54.19
16481;BME280;44634;54.110;12.138;2023-03-26T12:55:58;100253.97;;;15.21;50.90
16481;BME280;44634;54.110;12.138;2023-03-26T12:58:44;100259.44;;;15.42;49.51
16481;BME280;44634;54.110;12.138;2023-03-26T13:01:24;100266.59;;;14.73;49.96
16481;BME280;44634;54.110;12.138;2023-03-26T13:04:11;100255.06;;;15.49;47.26
16481;BME280;44634;54.110;12.138;2023-03-26T13:06:43;100246.56;;;16.13;47.65
16481;BME280;44634;54.110;12.138;2023-03-26T13:09:50;100261.91;;;15.66;45.44
16481;BME280;44634;54.110;12.138;2023-03-26T13:12:30;100258.97;;;14.70;51.05
16481;BME280;44634;54.110;12.138;2023-03-26T13:15:21;100260.50;;;13.69;55.90
16481;BME280;44634;54.110;12.138;2023-03-26T13:18:01;100264.34;;;13.02;63.08
16481;BME280;44634;54.110;12.138;2023-03-26T13:20:46;100250.66;;;13.94;61.08
16481;BME280;44634;54.110;12.138;2023-03-26T13:23:21;100254.25;;;13.05;62.73
16481;BME280;44634;54.110;12.138;2023-03-26T13:26:00;100246.81;;;14.44;55.02
16481;BME280;44634;54.110;12.138;2023-03-26T13:28:34;100250.75;;;13.62;58.54
16481;BME280;44634;54.110;12.138;2023-03-26T13:31:11;100240.25;;;14.24;53.74
16481;BME280;44634;54.110;12.138;2023-03-26T13:33:49;100242.78;;;13.62;56.05
16481;BME280;44634;54.110;12.138;2023-03-26T13:36:28;100241.13;;;13.45;57.20
16481;BME280;44634;54.110;12.138;2023-03-26T13:39:05;100248.78;;;13.48;62.29
16481;BME280;44634;54.110;12.138;2023-03-26T13:41:54;100244.03;;;12.02;73.53
16481;BME280;44634;54.110;12.138;2023-03-26T13:44:34;100248.75;;;13.56;63.12
16481;BME280;44634;54.110;12.138;2023-03-26T13:47:09;100238.13;;;14.19;66.99
16481;BME280;44634;54.110;12.138;2023-03-26T13:49:41;100250.75;;;13.13;71.39
16481;BME280;44634;54.110;12.138;2023-03-26T13:52:13;100252.88;;;12.18;77.68